Time;durP1;ratioP1;P1;durP2;ratioP2;P2;SDS_P1;SDS_P2;PMS_P1;PMS_P2;Temp;Humidity;BMP_temperature;BMP_pressure;BME280_temperature;BME280_humidity;BME280_pressure;Samples;Min_cycle;Max_cycle;Signal;HPM_P1;HPM_P2
2020/12/09 12:16:34;;;;;;;29.90;21.10;;;6.70;99.90;;;7.68;100.00;99520.37;5254935;27;20226;31
2020/12/09 12:31:12;;;;;;;28.37;22.87;;;6.70;99.90;;;8.04;98.33;99529.38;5079382;28;20551;-81
2020/12/09 12:33:40;;;;;;;29.17;22.20;;;6.80;99.90;;;8.19;97.88;99515.63;5062194;28;20605;-82
2020/12/09 12:36:12;;;;;;;32.00;22.87;;;6.90;99.90;;;8.28;97.47;99519.69;5063030;28;20189;-81
2020/12/09 12:38:42;;;;;;;31.40;22.70;;;7.00;99.90;;;8.17;98.03;99526.56;5074534;28;20304;-82
2020/12/09 12:41:13;;;;;;;28.60;22.47;;;6.90;99.90;;;8.23;98.33;99523.06;5074806;28;20197;-82
2020/12/09 12:43:45;;;;;;;28.57;21.00;;;6.80;99.90;;;8.08;97.73;99524.38;5061757;28;20193;-80
2020/12/09 12:46:19;;;;;;;30.93;23.70;;;6.90;99.90;;;8.11;97.56;99518.59;5062530;28;20190;-82
2020/12/09 12:48:49;;;;;;;29.17;22.33;;;6.90;99.90;;;7.94;98.08;99526.34;5061464;28;20626;-82
2020/12/09 12:51:23;;;;;;;29.20;20.70;;;6.90;99.90;;;7.91;98.51;99523.28;5064501;28;20220;-82
2020/12/09 12:53:55;;;;;;;28.07;21.77;;;6.80;99.90;;;7.84;99.82;99526.03;5065139;28;20193;-82
2020/12/09 12:56:30;;;;;;;32.33;23.87;;;6.80;99.90;;;7.90;100.00;99532.38;5063674;28;20201;-81
2020/12/09 12:58:58;;;;;;;29.93;21.80;;;6.80;99.90;;;7.72;100.00;99533.13;5064339;28;20228;-81
2020/12/09 13:01:27;;;;;;;31.30;23.40;;;6.70;99.90;;;7.82;99.72;99525.41;5063592;28;20260;-82
2020/12/09 13:03:55;;;;;;;32.30;22.03;;;6.70;99.90;;;7.80;100.00;99526.66;5064518;28;20201;-83
2020/12/09 13:06:23;;;;;;;33.63;23.27;;;6.80;99.90;;;7.58;100.00;99528.06;5078571;28;20205;-82
2020/12/09 13:08:54;;;;;;;33.47;24.30;;;6.70;99.90;;;7.63;100.00;99528.25;5061287;28;20635;-82
2020/12/09 13:11:22;;;;;;;32.63;24.13;;;6.60;99.90;;;7.74;100.00;99531.03;5061108;28;20186;-82
2020/12/09 13:13:59;;;;;;;34.33;23.67;;;6.60;99.90;;;7.75;100.00;99532.69;5062553;28;20197;-83
2020/12/09 13:16:49;;;;;;;34.00;24.73;;;6.60;99.90;;;7.89;100.00;99536.09;5064326;28;20223;-81
2020/12/09 13:19:18;;;;;;;32.93;23.80;;;6.70;99.90;;;7.67;100.00;99546.34;5061926;28;20233;-82
2020/12/09 13:21:52;;;;;;;32.37;22.93;;;6.60;99.90;;;7.69;100.00;99538.09;5067385;28;20216;-81
2020/12/09 13:24:19;;;;;;;32.07;22.90;;;6.60;99.90;;;7.51;100.00;99538.81;5057634;28;20217;-81
2020/12/09 13:26:47;;;;;;;32.37;22.30;;;6.50;99.90;;;7.34;100.00;99537.66;5043853;28;20228;-82
2020/12/09 13:29:17;;;;;;;33.00;22.47;;;6.40;99.90;;;7.28;100.00;99536.69;5059823;28;20311;-80
2020/12/09 13:31:52;;;;;;;31.40;24.03;;;6.30;99.90;;;7.45;100.00;99534.31;5044456;28;20294;-81
2020/12/09 13:34:19;;;;;;;31.37;23.43;;;6.30;99.90;;;6.98;100.00;99538.25;5042457;28;20185;-82
2020/12/09 13:36:49;;;;;;;33.77;23.27;;;6.20;99.90;;;6.99;100.00;99545.25;5043117;28;20252;-82
2020/12/09 13:39:19;;;;;;;30.63;23.27;;;6.10;99.90;;;7.09;100.00;99545.63;5044322;28;20214;-81
2020/12/09 13:41:47;;;;;;;32.23;22.40;;;6.20;99.90;;;7.16;100.00;99542.91;5045693;28;20649;-82
2020/12/09 13:44:16;;;;;;;31.23;23.00;;;6.10;99.90;;;7.18;100.00;99543.53;5044527;28;20232;-82
2020/12/09 13:46:47;;;;;;;32.33;23.27;;;6.10;99.90;;;7.32;100.00;99535.19;5044163;28;20531;-81
2020/12/09 13:49:16;;;;;;;33.07;23.57;;;6.10;99.90;;;7.65;100.00;99547.59;5046030;28;20214;-81
2020/12/09 13:51:46;;;;;;;35.77;23.83;;;6.30;99.90;;;7.38;100.00;99553.13;5058035;28;20303;-82
2020/12/09 13:54:16;;;;;;;33.47;23.70;;;6.30;99.90;;;7.41;100.00;99543.81;5086434;28;20250;-80
2020/12/09 13:56:45;;;;;;;31.43;22.93;;;6.40;99.90;;;7.40;100.00;99545.69;5069366;28;20230;-80
2020/12/09 13:59:16;;;;;;;30.63;22.67;;;6.30;99.90;;;7.41;100.00;99546.50;5084756;28;20320;-80
2020/12/09 14:01:49;;;;;;;34.83;23.53;;;6.40;99.90;;;6.99;100.00;99552.44;5083728;28;20612;-80
2020/12/09 14:04:18;;;;;;;32.17;22.43;;;6.30;99.90;;;6.98;100.00;99548.97;5087090;28;20189;-80
2020/12/09 14:06:53;;;;;;;31.53;21.63;;;6.20;99.90;;;7.08;100.00;99559.22;5065416;28;20193;-80
2020/12/09 14:09:21;;;;;;;31.60;22.13;;;6.10;99.90;;;6.92;100.00;99551.66;5090527;28;20207;-82
2020/12/09 14:11:49;;;;;;;31.03;22.53;;;6.10;99.90;;;6.99;100.00;99547.94;5084157;28;20207;-81
2020/12/09 14:14:17;;;;;;;32.33;22.30;;;6.00;99.90;;;7.16;100.00;99543.75;5084333;28;20200;-80
2020/12/09 14:16:49;;;;;;;35.37;24.47;;;6.00;99.90;;;7.04;100.00;99542.75;5085484;28;20227;-84
2020/12/09 14:19:25;;;;;;;29.67;22.40;;;6.00;99.90;;;7.28;100.00;99538.53;5066996;28;20201;-80
2020/12/09 14:21:53;;;;;;;29.13;21.80;;;6.00;99.90;;;7.53;100.00;99539.41;5068572;28;20235;-81
2020/12/09 14:24:22;;;;;;;30.63;21.67;;;6.20;99.90;;;7.29;100.00;99541.00;5084526;28;20205;-85
2020/12/09 14:27:06;;;;;;;31.90;22.87;;;6.20;99.90;;;7.33;100.00;99544.06;5080348;28;20221;-82
2020/12/09 14:29:35;;;;;;;31.00;22.20;;;6.20;99.90;;;7.32;100.00;99545.13;5089569;28;20330;-83
2020/12/09 14:32:03;;;;;;;33.77;22.80;;;6.20;99.90;;;7.23;100.00;99549.88;5098180;28;20192;-84
2020/12/09 14:34:38;;;;;;;33.13;23.50;;;6.20;99.90;;;7.27;100.00;99551.09;5097906;28;20181;-83
2020/12/09 20:02:06;;;;;;;50.00;29.67;;;4.70;99.90;;;5.70;100.00;99638.66;5212041;24;20275;-67
2020/12/09 20:04:33;;;;;;;50.90;30.60;;;4.70;99.90;;;5.72;100.00;99627.78;4803043;29;20569;-67
2020/12/09 20:07:01;;;;;;;51.17;30.47;;;4.70;99.90;;;5.65;100.00;99635.78;4776240;29;20277;-68
2020/12/09 20:09:29;;;;;;;54.53;32.17;;;4.80;99.90;;;5.60;100.00;99640.06;4753767;30;20630;-68
2020/12/09 20:11:57;;;;;;;52.37;31.77;;;4.70;99.90;;;5.65;100.00;99637.66;4763434;30;20219;-68
2020/12/09 20:14:26;;;;;;;51.07;31.03;;;4.70;99.90;;;5.28;100.00;99641.59;4751471;30;20218;-74
2020/12/09 20:16:54;;;;;;;53.83;31.10;;;4.60;99.90;;;5.51;100.00;99635.94;4751429;30;20565;-74
2020/12/09 20:19:23;;;;;;;53.27;31.73;;;4.60;99.90;;;5.49;100.00;99632.63;4751551;30;20416;-73
2020/12/09 20:21:50;;;;;;;53.73;31.77;;;4.60;99.90;;;5.47;100.00;99634.69;4751410;30;20216;-73
2020/12/09 20:24:17;;;;;;;52.57;31.07;;;4.60;99.90;;;5.45;100.00;99624.19;4751357;30;20273;-73
2020/12/09 20:26:45;;;;;;;55.00;31.83;;;4.50;99.90;;;5.48;100.00;99625.66;4755041;30;20279;-73
2020/12/09 20:29:14;;;;;;;55.93;32.43;;;4.50;99.90;;;5.27;100.00;99629.28;4769119;30;20332;-74
2020/12/09 20:31:41;;;;;;;52.07;32.10;;;4.50;99.90;;;5.36;100.00;99637.94;4769014;30;20655;-74
2020/12/09 20:34:08;;;;;;;53.03;31.23;;;4.50;99.90;;;5.28;100.00;99630.06;4769134;30;20324;-74
2020/12/09 20:36:37;;;;;;;56.70;30.63;;;4.40;99.90;;;5.10;100.00;99637.78;4769006;30;20217;-73
2020/12/09 20:39:07;;;;;;;53.70;30.90;;;4.40;99.90;;;5.25;100.00;99633.16;4769072;30;20622;-73
2020/12/09 20:41:36;;;;;;;51.60;30.23;;;4.40;99.90;;;5.34;100.00;99637.31;4773055;30;20214;-74
2020/12/09 20:44:06;;;;;;;49.87;30.60;;;4.40;99.90;;;5.36;100.00;99633.41;4772589;30;20221;-73
2020/12/09 20:46:37;;;;;;;52.93;31.00;;;4.40;99.90;;;5.46;100.00;99635.72;4772573;30;20291;-73
2020/12/09 20:49:07;;;;;;;53.47;30.93;;;4.50;99.90;;;5.23;100.00;99641.34;4772596;30;20202;-74
2020/12/09 20:51:40;;;;;;;50.67;30.43;;;4.40;99.90;;;5.25;100.00;99633.97;4772637;30;20290;-73
2020/12/09 20:54:09;;;;;;;56.00;31.10;;;4.40;99.90;;;5.32;100.00;99639.34;4772330;30;20230;-74
2020/12/09 20:56:37;;;;;;;52.77;30.20;;;4.40;99.90;;;5.28;100.00;99644.25;4772607;30;20218;-73
2020/12/09 20:59:06;;;;;;;50.57;30.27;;;4.40;99.90;;;5.26;100.00;99648.16;4772678;30;20223;-73
2020/12/09 21:01:37;;;;;;;54.67;31.63;;;4.40;99.90;;;5.22;100.00;99637.06;4772278;30;20321;-73
2020/12/09 21:04:06;;;;;;;52.27;30.53;;;4.40;99.90;;;5.39;100.00;99638.38;4772141;30;20338;-73
2020/12/09 21:06:37;;;;;;;51.17;30.57;;;4.40;99.90;;;5.29;100.00;99632.56;4772353;30;20302;-74
2020/12/09 21:09:07;;;;;;;50.77;30.67;;;4.40;99.90;;;5.16;100.00;99637.81;4772526;30;20222;-73
2020/12/09 21:11:34;;;;;;;53.23;30.70;;;4.30;99.90;;;5.20;100.00;99633.75;4768639;30;20277;-72
2020/12/09 21:14:02;;;;;;;51.50;29.87;;;4.30;99.90;;;5.24;100.00;99632.34;4772567;30;20214;-70
2020/12/09 21:16:32;;;;;;;50.03;30.30;;;4.30;99.90;;;5.21;100.00;99634.59;4772527;30;20627;-78
2020/12/09 21:19:03;;;;;;;51.57;30.30;;;4.30;99.90;;;5.22;100.00;99633.56;4770279;30;20237;-78
2020/12/09 21:21:30;;;;;;;49.97;30.13;;;4.30;99.90;;;4.97;100.00;99631.38;4756294;30;20318;-76
2020/12/09 21:23:59;;;;;;;53.27;30.37;;;4.20;99.90;;;5.02;100.00;99638.81;4762960;30;20225;-75
2020/12/09 21:26:26;;;;;;;54.73;30.23;;;4.20;99.90;;;5.27;100.00;99631.94;4772465;30;20257;-76
2020/12/09 21:28:53;;;;;;;52.40;29.63;;;4.30;99.90;;;5.06;100.00;99633.91;4756305;30;20221;-77
2020/12/09 21:31:24;;;;;;;54.80;29.97;;;4.30;99.90;;;5.12;100.00;99635.75;4771892;30;20234;-77
2020/12/09 21:33:52;;;;;;;51.97;30.13;;;4.20;99.90;;;5.24;100.00;99642.19;4772492;30;20194;-76
2020/12/09 21:36:21;;;;;;;57.03;31.30;;;4.30;99.90;;;5.18;100.00;99642.97;4772068;30;20790;-76
2020/12/09 21:38:48;;;;;;;55.20;31.23;;;4.30;99.90;;;5.18;100.00;99648.31;4772115;30;20301;-77
2020/12/09 21:41:22;;;;;;;49.80;29.83;;;4.30;99.90;;;5.10;100.00;99646.63;4772242;30;20559;-76
2020/12/09 21:43:49;;;;;;;50.20;29.53;;;4.30;99.90;;;5.33;100.00;99627.66;4763956;30;20215;-75
2020/12/09 21:46:16;;;;;;;48.07;28.93;;;4.30;99.90;;;5.21;100.00;99634.59;4754352;30;20591;-76
2020/12/09 21:48:44;;;;;;;48.20;28.90;;;4.30;99.90;;;5.20;100.00;99639.09;4754317;30;20301;-77
2020/12/09 21:51:13;;;;;;;52.93;29.73;;;4.30;99.90;;;5.24;100.00;99632.34;4753659;30;20239;-75
2020/12/09 21:53:41;;;;;;;55.47;29.70;;;4.30;99.90;;;5.34;100.00;99639.97;4753864;30;20254;-76
2020/12/09 21:56:09;;;;;;;53.17;28.87;;;4.30;99.90;;;5.16;100.00;99643.16;4754197;30;20304;-75
2020/12/09 21:58:38;;;;;;;50.87;30.30;;;4.30;99.90;;;5.02;100.00;99633.47;4754258;30;20222;-77
2020/12/09 22:01:07;;;;;;;52.03;29.73;;;4.20;99.90;;;5.23;100.00;99617.31;4758927;30;20274;-77
2020/12/09 22:03:35;;;;;;;48.70;28.73;;;4.30;99.90;;;5.23;100.00;99621.84;4771873;30;20218;-76
2020/12/09 22:06:02;;;;;;;50.87;30.03;;;4.30;99.90;;;5.23;100.00;99628.00;4771360;30;20312;-60
2020/12/09 22:08:30;;;;;;;52.20;29.97;;;4.30;99.90;;;5.20;100.00;99623.06;4771134;30;20224;-59
2020/12/09 22:10:57;;;;;;;52.80;29.40;;;4.20;99.90;;;5.15;100.00;99620.19;4771305;30;20242;-60
2020/12/09 22:13:24;;;;;;;51.77;29.03;;;4.30;99.90;;;5.08;100.00;99616.66;4771195;30;20689;-59
2020/12/09 22:15:53;;;;;;;54.13;30.23;;;4.20;99.90;;;5.13;100.00;99616.03;4771603;30;20299;-60
2020/12/09 22:18:20;;;;;;;51.90;29.37;;;4.20;99.90;;;4.94;100.00;99618.41;4770934;30;20677;-60
2020/12/09 22:20:48;;;;;;;52.80;28.57;;;4.10;99.90;;;5.10;100.00;99611.09;4771375;30;20313;-60
2020/12/09 22:23:15;;;;;;;53.73;28.97;;;4.20;99.90;;;5.32;100.00;99620.66;4771572;30;20303;-59
2020/12/09 22:25:42;;;;;;;49.57;28.20;;;4.20;99.90;;;5.24;100.00;99616.31;4771378;30;20316;-59
2020/12/09 22:28:09;;;;;;;51.10;29.23;;;4.20;99.90;;;5.18;100.00;99613.59;4771516;30;20248;-59
2020/12/09 22:30:36;;;;;;;53.93;28.97;;;4.20;99.90;;;5.21;100.00;99616.69;4771160;30;20275;-59
2020/12/09 22:33:04;;;;;;;49.20;26.93;;;4.20;99.90;;;4.99;100.00;99615.97;4771426;30;20296;-59
2020/12/09 22:35:32;;;;;;;55.57;29.73;;;4.20;99.90;;;4.99;100.00;99621.31;4770961;30;20245;-59
2020/12/09 22:37:59;;;;;;;51.60;29.00;;;4.10;99.90;;;5.12;100.00;99620.56;4771358;30;20214;-60
2020/12/09 22:40:26;;;;;;;54.70;28.57;;;4.10;99.90;;;5.18;100.00;99614.44;4771125;30;20239;-60
2020/12/09 22:42:54;;;;;;;51.53;28.60;;;4.10;99.90;;;5.05;100.00;99624.22;4771041;30;20337;-59
2020/12/09 22:45:22;;;;;;;53.67;29.90;;;4.10;99.90;;;4.81;100.00;99622.84;4771108;30;20319;-59
2020/12/09 22:47:51;;;;;;;52.67;28.77;;;4.00;99.90;;;5.06;100.00;99612.53;4771107;30;20308;-59
2020/12/09 22:50:34;;;;;;;56.30;29.73;;;4.10;99.90;;;5.03;100.00;99621.75;4770891;30;20572;-59
2020/12/09 22:53:02;;;;;;;53.90;28.60;;;4.00;99.90;;;5.17;100.00;99614.63;4770631;30;20218;-59
2020/12/09 22:55:29;;;;;;;50.60;28.17;;;4.10;99.90;;;4.85;100.00;99614.25;4770782;30;20316;-60
2020/12/09 22:57:56;;;;;;;54.47;29.60;;;4.10;99.90;;;5.11;100.00;99607.44;4770841;30;20249;-59
2020/12/09 23:00:24;;;;;;;53.13;29.23;;;4.10;99.90;;;5.13;100.00;99600.03;4770635;30;20277;-59
2020/12/09 23:02:51;;;;;;;46.53;26.97;;;4.10;99.90;;;5.04;100.00;99599.38;4751482;30;20331;-59
2020/12/09 23:05:18;;;;;;;54.83;29.67;;;4.10;99.90;;;4.84;100.00;99598.44;4751984;30;20297;-59
2020/12/09 23:07:47;;;;;;;51.77;28.20;;;4.10;99.90;;;4.98;100.00;99592.16;4752824;30;20239;-59
2020/12/09 23:10:14;;;;;;;55.17;28.97;;;4.10;99.90;;;4.74;100.00;99595.31;4752754;30;20211;-58
2020/12/09 23:12:42;;;;;;;49.53;26.53;;;4.00;99.90;;;4.95;100.00;99589.91;4752965;30;20215;-61
2020/12/09 23:15:09;;;;;;;53.33;26.83;;;4.10;99.90;;;4.90;100.00;99592.34;4752648;30;20716;-59
2020/12/09 23:17:37;;;;;;;49.50;27.40;;;4.10;99.90;;;4.90;100.00;99590.47;4752699;30;20294;-59
2020/12/09 23:20:06;;;;;;;50.70;26.00;;;4.00;99.90;;;4.85;100.00;99594.78;4752731;30;20234;-59
2020/12/09 23:22:33;;;;;;;50.57;25.20;;;4.00;99.90;;;4.95;100.00;99593.38;4752669;30;20315;-58
2020/12/09 23:25:02;;;;;;;49.70;25.63;;;4.00;99.90;;;4.88;100.00;99581.03;4752870;30;20216;-59
2020/12/09 23:27:31;;;;;;;52.77;26.53;;;3.90;99.90;;;4.89;100.00;99586.16;4752636;30;20240;-59
2020/12/09 23:29:58;;;;;;;50.30;24.87;;;4.00;99.90;;;4.94;100.00;99574.88;4752500;30;20311;-59
2020/12/09 23:32:26;;;;;;;49.57;25.03;;;4.00;99.90;;;4.75;100.00;99576.44;4752617;30;20245;-60
2020/12/09 23:34:53;;;;;;;48.53;24.93;;;3.90;99.90;;;4.66;100.00;99576.78;4752531;30;20271;-60
2020/12/09 23:37:20;;;;;;;49.87;25.10;;;3.90;99.90;;;4.92;100.00;99568.94;4752440;30;20224;-59
2020/12/09 23:39:49;;;;;;;48.10;24.83;;;3.90;99.90;;;4.87;100.00;99571.38;4752437;30;20219;-60
2020/12/09 23:42:18;;;;;;;50.07;24.70;;;3.90;99.90;;;4.75;100.00;99568.44;4752439;30;20309;-59
2020/12/09 23:44:45;;;;;;;51.27;24.70;;;3.90;99.90;;;4.63;100.00;99574.53;4752505;30;20305;-59
2020/12/09 23:47:12;;;;;;;50.60;24.87;;;3.80;99.90;;;4.58;100.00;99574.28;4752205;30;20273;-60
2020/12/09 23:49:40;;;;;;;46.40;23.27;;;3.70;99.90;;;4.67;100.00;99565.09;4752364;30;20317;-59
2020/12/09 23:52:10;;;;;;;48.70;24.30;;;3.70;99.90;;;4.90;100.00;99566.44;4752249;30;20307;-59
2020/12/09 23:54:37;;;;;;;46.53;24.03;;;3.80;99.90;;;4.63;100.00;99564.66;4752067;30;20257;-59
2020/12/09 23:57:05;;;;;;;49.17;24.00;;;3.80;99.90;;;4.90;100.00;99558.44;4752132;30;20297;-60
2020/12/09 23:59:33;;;;;;;42.90;23.23;;;3.80;99.90;;;4.76;100.00;99556.75;4752292;30;20240;-60
